createdAt,value
2018-03-19T00:01:40.252Z,7.10
2018-03-19T00:04:07.518Z,7.57
2018-03-19T00:06:34.794Z,6.97
2018-03-19T00:09:02.124Z,6.97
2018-03-19T00:11:29.379Z,7.63
2018-03-19T00:13:56.648Z,7.40
2018-03-19T00:16:23.981Z,6.97
2018-03-19T00:18:51.254Z,7.67
2018-03-19T00:21:18.589Z,7.20
2018-03-19T00:23:45.865Z,6.77
2018-03-19T00:26:13.117Z,7.40
2018-03-19T00:28:40.397Z,7.87
2018-03-19T00:31:07.661Z,6.60
2018-03-19T00:33:34.933Z,6.53
2018-03-19T00:36:02.184Z,5.97
2018-03-19T00:38:29.506Z,7.47
2018-03-19T00:40:56.722Z,6.20
2018-03-19T00:43:24.002Z,7.27
2018-03-19T00:45:51.261Z,6.73
2018-03-19T00:48:18.542Z,6.20
2018-03-19T00:50:45.800Z,7.17
2018-03-19T00:53:13.188Z,7.13
2018-03-19T00:55:40.540Z,6.80
2018-03-19T00:58:07.792Z,7.23
2018-03-19T01:00:35.085Z,7.47
2018-03-19T01:03:02.367Z,7.23
2018-03-19T01:05:29.621Z,7.13
2018-03-19T01:07:56.896Z,6.17
2018-03-19T01:10:24.933Z,7.17
2018-03-19T01:12:52.234Z,6.30
2018-03-19T01:15:19.593Z,6.97
2018-03-19T01:17:46.852Z,6.50
2018-03-19T01:20:14.132Z,7.40
2018-03-19T01:22:41.393Z,6.50
2018-03-19T01:25:08.673Z,6.80
2018-03-19T01:27:35.938Z,6.97
2018-03-19T01:30:03.318Z,6.63
2018-03-19T01:32:30.673Z,6.77
2018-03-19T01:34:57.953Z,7.00
2018-03-19T01:37:25.287Z,7.57
2018-03-19T01:39:52.549Z,7.53
2018-03-19T01:42:19.834Z,7.60
2018-03-19T01:44:47.087Z,6.97
2018-03-19T01:47:14.367Z,7.10
2018-03-19T01:49:41.631Z,7.67
2018-03-19T01:52:09.005Z,6.70
2018-03-19T01:54:36.272Z,7.50
2018-03-19T01:57:03.616Z,6.93
2018-03-19T01:59:30.881Z,6.63
2018-03-19T02:01:58.229Z,7.53
2018-03-19T02:04:25.517Z,6.93
2018-03-19T02:06:52.776Z,7.03
2018-03-19T02:09:20.057Z,7.47
2018-03-19T02:11:47.334Z,6.90
2018-03-19T02:14:14.586Z,7.37
2018-03-19T02:16:41.878Z,6.83
2018-03-19T02:19:09.217Z,7.30
2018-03-19T02:21:36.473Z,6.70
2018-03-19T02:24:03.761Z,7.80
2018-03-19T02:26:31.022Z,7.30
2018-03-19T02:28:58.297Z,7.80
2018-03-19T02:31:25.576Z,6.80
2018-03-19T02:33:52.848Z,7.73
2018-03-19T02:36:20.241Z,6.90
2018-03-19T02:38:47.537Z,7.87
2018-03-19T02:41:14.801Z,7.43
2018-03-19T02:43:42.100Z,7.77
2018-03-19T02:46:09.336Z,7.80
2018-03-19T02:48:36.621Z,8.00
2018-03-19T02:51:03.905Z,7.83
2018-03-19T02:53:31.180Z,7.60
2018-03-19T02:55:58.444Z,7.23
2018-03-19T02:58:25.737Z,6.70
2018-03-19T03:00:53.004Z,7.70
2018-03-19T03:03:20.253Z,8.50
2018-03-19T03:05:47.530Z,7.70
2018-03-19T03:08:14.789Z,8.47
2018-03-19T03:10:42.084Z,7.60
2018-03-19T03:13:09.344Z,8.57
2018-03-19T03:15:36.617Z,8.40
2018-03-19T03:18:03.883Z,8.33
2018-03-19T03:20:31.255Z,8.50
2018-03-19T03:22:58.509Z,7.67
2018-03-19T03:25:25.781Z,9.03
2018-03-19T03:27:53.054Z,8.30
2018-03-19T03:30:20.327Z,7.80
2018-03-19T03:32:47.626Z,8.20
2018-03-19T03:35:14.897Z,7.07
2018-03-19T03:37:42.165Z,8.00
2018-03-19T03:40:09.440Z,8.37
2018-03-19T03:42:36.697Z,7.90
2018-03-19T03:45:03.976Z,8.83
2018-03-19T03:47:31.236Z,8.53
2018-03-19T03:49:58.522Z,8.20
2018-03-19T03:52:25.780Z,8.00
2018-03-19T03:54:53.040Z,8.40
2018-03-19T03:57:20.325Z,8.13
2018-03-19T03:59:47.579Z,7.40
2018-03-19T04:02:14.869Z,8.90
2018-03-19T04:04:42.151Z,7.60
2018-03-19T04:07:09.421Z,8.13
2018-03-19T04:09:36.681Z,8.50
2018-03-19T04:12:03.985Z,7.83
2018-03-19T04:14:31.236Z,8.27
2018-03-19T04:16:58.523Z,7.87
2018-03-19T04:19:25.777Z,7.80
2018-03-19T04:21:53.062Z,8.07
2018-03-19T04:24:20.392Z,7.77
2018-03-19T04:26:47.630Z,8.03
2018-03-19T04:29:14.885Z,8.23
2018-03-19T04:31:42.172Z,8.00
2018-03-19T04:34:09.446Z,8.83
2018-03-19T04:36:36.725Z,8.53
2018-03-19T04:39:04.072Z,8.33
2018-03-19T04:41:31.332Z,8.93
2018-03-19T04:43:58.620Z,8.70
2018-03-19T04:46:26.010Z,7.93
2018-03-19T04:48:53.264Z,8.13
2018-03-19T04:51:20.525Z,7.93
2018-03-19T04:53:47.904Z,8.60
2018-03-19T04:56:15.256Z,8.27
2018-03-19T04:58:42.538Z,7.87
2018-03-19T05:01:09.790Z,9.13
2018-03-19T05:03:37.069Z,8.13
2018-03-19T05:06:04.333Z,9.07
2018-03-19T05:08:31.635Z,8.60
2018-03-19T05:10:58.888Z,7.07
2018-03-19T05:13:26.168Z,9.27
2018-03-19T05:15:53.434Z,10.00
2018-03-19T05:18:20.730Z,9.57
2018-03-19T05:20:47.977Z,8.00
2018-03-19T05:23:15.356Z,12.70
2018-03-19T05:25:42.626Z,8.77
2018-03-19T05:28:09.889Z,13.03
2018-03-19T05:30:37.174Z,10.00
2018-03-19T05:33:04.432Z,9.80
2018-03-19T05:35:31.715Z,8.40
2018-03-19T05:37:58.974Z,11.90
2018-03-19T05:40:26.254Z,9.93
2018-03-19T05:42:53.524Z,11.07
2018-03-19T05:45:20.803Z,8.30
2018-03-19T05:47:48.060Z,9.00
2018-03-19T05:50:15.338Z,9.77
2018-03-19T05:52:42.596Z,7.87
2018-03-19T05:55:09.887Z,8.20
2018-03-19T05:57:37.148Z,8.90
2018-03-19T06:00:04.425Z,10.33
2018-03-19T06:02:31.716Z,9.23
2018-03-19T06:04:58.984Z,12.10
2018-03-19T06:07:26.268Z,8.20
2018-03-19T06:09:53.527Z,9.30
2018-03-19T06:12:20.930Z,11.30
2018-03-19T06:14:48.205Z,10.30
2018-03-19T06:17:15.468Z,10.23
2018-03-19T06:19:42.764Z,10.50
2018-03-19T06:22:10.026Z,9.90
2018-03-19T06:24:37.407Z,8.73
2018-03-19T06:27:04.664Z,8.20
2018-03-19T06:29:31.961Z,9.00
2018-03-19T06:31:59.225Z,8.70
2018-03-19T06:34:26.476Z,8.83
2018-03-19T06:36:53.792Z,10.47
2018-03-19T06:39:21.119Z,11.80
2018-03-19T06:41:48.384Z,8.73
2018-03-19T06:44:15.645Z,9.50
2018-03-19T06:46:42.925Z,9.27
2018-03-19T06:49:10.251Z,9.20
2018-03-19T06:51:37.518Z,10.23
2018-03-19T06:54:04.796Z,11.67
2018-03-19T06:56:32.069Z,15.20
2018-03-19T06:58:59.352Z,9.73
2018-03-19T07:01:26.613Z,9.87
2018-03-19T07:03:53.898Z,9.80
2018-03-19T07:06:21.176Z,9.47
2018-03-19T07:08:48.449Z,8.90
2018-03-19T07:11:15.736Z,9.10
2018-03-19T07:13:42.992Z,8.93
2018-03-19T07:16:10.291Z,10.70
2018-03-19T07:18:37.551Z,9.57
2018-03-19T07:21:04.814Z,8.97
2018-03-19T07:23:32.100Z,9.73
2018-03-19T07:26:00.281Z,9.17
2018-03-19T07:28:27.529Z,9.43
2018-03-19T07:30:54.824Z,8.77
2018-03-19T07:33:22.134Z,8.33
2018-03-19T07:35:49.393Z,9.43
2018-03-19T07:38:16.707Z,8.43
2018-03-19T07:40:43.974Z,9.20
2018-03-19T07:43:11.269Z,13.87
2018-03-19T07:45:38.536Z,11.37
2018-03-19T07:48:05.810Z,10.37
2018-03-19T07:50:33.110Z,10.27
2018-03-19T07:53:00.378Z,8.97
2018-03-19T07:55:27.661Z,8.37
2018-03-19T07:57:54.941Z,8.50
2018-03-19T08:00:22.196Z,9.80
2018-03-19T08:02:49.485Z,8.93
2018-03-19T08:05:16.746Z,9.83
2018-03-19T08:07:44.047Z,9.40
2018-03-19T08:10:11.303Z,9.20
2018-03-19T08:12:38.600Z,9.60
2018-03-19T08:15:05.884Z,9.87
2018-03-19T08:17:33.145Z,9.57
2018-03-19T08:20:00.429Z,9.53
2018-03-19T08:22:27.688Z,8.47
2018-03-19T08:24:54.945Z,9.00
2018-03-19T08:27:22.240Z,8.43
2018-03-19T08:29:49.523Z,8.77
2018-03-19T08:32:16.795Z,7.63
2018-03-19T08:34:44.179Z,9.23
2018-03-19T08:37:11.445Z,9.17
2018-03-19T08:39:38.737Z,9.20
2018-03-19T08:42:05.996Z,8.00
2018-03-19T08:44:33.297Z,9.50
2018-03-19T08:47:00.585Z,8.93
2018-03-19T08:49:27.903Z,9.20
2018-03-19T08:51:55.160Z,9.50
2018-03-19T08:54:22.456Z,9.37
2018-03-19T08:56:49.715Z,8.90
2018-03-19T08:59:16.976Z,9.70
2018-03-19T09:01:44.259Z,9.30
2018-03-19T09:04:11.548Z,10.70
2018-03-19T09:06:38.817Z,8.00
2018-03-19T09:09:06.087Z,9.00
2018-03-19T09:11:33.386Z,8.80
2018-03-19T09:14:00.639Z,7.90
2018-03-19T09:16:27.928Z,9.97
2018-03-19T09:18:55.254Z,9.10
2018-03-19T09:21:22.517Z,9.90
2018-03-19T09:23:49.800Z,8.50
2018-03-19T09:26:17.131Z,7.70
2018-03-19T09:28:44.408Z,9.37
2018-03-19T09:31:11.747Z,10.13
2018-03-19T09:33:39.017Z,9.70
2018-03-19T09:36:06.294Z,10.70
2018-03-19T09:38:33.581Z,9.30
2018-03-19T09:41:00.847Z,10.13
2018-03-19T09:43:28.104Z,9.43
2018-03-19T09:45:55.405Z,10.33
2018-03-19T09:48:22.678Z,11.17
2018-03-19T09:50:49.952Z,9.70
2018-03-19T09:53:17.232Z,10.60
2018-03-19T09:55:44.488Z,10.10
2018-03-19T09:58:11.778Z,9.07
2018-03-19T10:00:39.041Z,8.07
2018-03-19T10:03:06.308Z,9.30
2018-03-19T10:05:33.593Z,10.10
2018-03-19T10:08:00.857Z,9.77
2018-03-19T10:10:28.194Z,10.40
2018-03-19T10:12:55.453Z,9.03
2018-03-19T10:15:22.755Z,10.70
2018-03-19T10:17:50.021Z,10.00
2018-03-19T10:20:17.300Z,9.20
2018-03-19T10:22:44.592Z,10.27
2018-03-19T10:25:11.863Z,10.90
2018-03-19T10:27:39.141Z,10.40
2018-03-19T10:30:06.431Z,10.30
2018-03-19T10:32:33.689Z,9.53
2018-03-19T10:35:00.953Z,10.50
2018-03-19T10:37:28.241Z,9.73
2018-03-19T10:39:55.543Z,9.77
2018-03-19T10:42:22.790Z,10.77
2018-03-19T10:44:50.093Z,10.77
2018-03-19T10:47:17.357Z,9.80
2018-03-19T10:49:44.652Z,11.00
2018-03-19T10:52:11.933Z,10.60
2018-03-19T10:54:39.258Z,12.27
2018-03-19T10:57:06.519Z,9.10
2018-03-19T10:59:33.797Z,9.23
2018-03-19T11:02:06.936Z,10.50
2018-03-19T11:04:34.214Z,9.93
2018-03-19T11:07:07.218Z,10.27
2018-03-19T11:09:34.512Z,10.17
2018-03-19T11:12:01.801Z,10.03
2018-03-19T11:14:29.084Z,10.73
2018-03-19T11:16:56.384Z,9.70
2018-03-19T11:19:23.641Z,10.87
2018-03-19T11:21:50.901Z,11.20
2018-03-19T11:24:18.282Z,11.33
2018-03-19T11:26:45.550Z,9.20
2018-03-19T11:29:12.849Z,9.63
2018-03-19T11:31:40.106Z,8.70
2018-03-19T11:34:07.379Z,10.33
2018-03-19T11:36:34.753Z,10.43
2018-03-19T11:39:02.112Z,10.40
2018-03-19T11:41:29.373Z,9.80
2018-03-19T11:43:56.724Z,10.40
2018-03-19T11:46:24.072Z,10.20
2018-03-19T11:48:51.375Z,10.10
2018-03-19T11:51:18.641Z,11.10
2018-03-19T11:53:45.909Z,10.70
2018-03-19T11:56:13.197Z,11.83
2018-03-19T11:58:40.487Z,11.40
2018-03-19T12:01:07.750Z,10.60
2018-03-19T12:03:35.016Z,11.70
2018-03-19T12:06:02.306Z,10.70
2018-03-19T12:08:29.566Z,10.90
2018-03-19T12:10:56.858Z,10.10
2018-03-19T12:13:24.117Z,10.17
2018-03-19T12:15:51.404Z,9.50
2018-03-19T12:18:18.693Z,9.37
2018-03-19T12:20:45.953Z,9.90
2018-03-19T12:23:13.241Z,9.97
2018-03-19T12:25:40.509Z,11.20
2018-03-19T12:28:08.720Z,10.00
2018-03-19T12:30:35.994Z,9.77
2018-03-19T12:33:03.253Z,9.90
2018-03-19T12:35:30.537Z,9.83
2018-03-19T12:37:57.803Z,10.47
2018-03-19T12:40:25.102Z,10.87
2018-03-19T12:42:52.363Z,10.20
2018-03-19T12:45:19.625Z,9.70
2018-03-19T12:47:46.913Z,8.53
2018-03-19T12:50:14.200Z,10.47
2018-03-19T12:52:41.463Z,10.93
2018-03-19T12:55:08.814Z,9.70
2018-03-19T12:57:36.097Z,9.03
2018-03-19T13:00:03.386Z,9.30
2018-03-19T13:02:30.644Z,10.10
2018-03-19T13:04:58.017Z,10.30
2018-03-19T13:07:25.286Z,10.00
2018-03-19T13:09:52.552Z,11.13
2018-03-19T13:12:19.854Z,10.13
2018-03-19T13:14:47.124Z,10.03
2018-03-19T13:17:14.378Z,8.20
2018-03-19T13:19:41.689Z,10.33
2018-03-19T13:22:08.958Z,10.97
2018-03-19T13:24:36.274Z,10.70
2018-03-19T13:27:03.492Z,8.73
2018-03-19T13:29:30.769Z,8.90
2018-03-19T13:31:58.052Z,10.50
2018-03-19T13:34:25.328Z,10.30
2018-03-19T13:36:52.629Z,9.57
2018-03-19T13:39:19.953Z,9.90
2018-03-19T13:41:47.252Z,10.00
2018-03-19T13:44:14.501Z,9.67
2018-03-19T13:46:41.770Z,11.47
2018-03-19T13:49:09.102Z,9.90
2018-03-19T13:51:36.380Z,11.60
2018-03-19T13:54:03.706Z,9.00
2018-03-19T13:56:31.010Z,10.70
2018-03-19T13:58:58.269Z,9.00
2018-03-19T14:01:25.534Z,9.40
2018-03-19T14:03:52.815Z,9.50
2018-03-19T14:06:20.083Z,8.00
2018-03-19T14:08:47.374Z,8.77
2018-03-19T14:11:14.680Z,10.93
2018-03-19T14:13:42.020Z,8.50
2018-03-19T14:16:09.303Z,9.67
2018-03-19T14:18:36.571Z,10.87
2018-03-19T14:21:04.829Z,10.07
2018-03-19T14:23:32.082Z,9.60
2018-03-19T14:25:59.349Z,9.10
2018-03-19T14:28:26.746Z,10.73
2018-03-19T14:30:53.951Z,9.17
2018-03-19T14:33:21.212Z,9.20
2018-03-19T14:35:48.527Z,9.07
2018-03-19T14:38:15.800Z,8.07
2018-03-19T14:40:43.081Z,9.00
2018-03-19T14:43:10.340Z,8.17
2018-03-19T14:45:37.662Z,9.53
2018-03-19T14:48:04.950Z,10.00
2018-03-19T14:50:32.344Z,8.70
2018-03-19T14:52:59.508Z,9.27
2018-03-19T14:55:26.881Z,9.60
2018-03-19T14:57:54.148Z,9.53
2018-03-19T15:00:21.428Z,9.10
2018-03-19T15:02:48.689Z,9.23
2018-03-19T15:05:15.953Z,9.10
2018-03-19T15:07:43.244Z,9.20
2018-03-19T15:10:10.600Z,9.30
2018-03-19T15:12:37.900Z,9.40
2018-03-19T15:15:05.166Z,8.90
2018-03-19T15:17:32.446Z,9.00
2018-03-19T15:19:59.721Z,8.20
2018-03-19T15:22:27.073Z,10.90
2018-03-19T15:24:54.370Z,9.60
2018-03-19T15:27:21.631Z,8.53
2018-03-19T15:29:48.943Z,9.17
2018-03-19T15:32:16.225Z,9.50
2018-03-19T15:34:43.484Z,10.30
2018-03-19T15:37:10.809Z,8.83
2018-03-19T15:39:38.060Z,8.20
2018-03-19T15:42:05.354Z,9.47
2018-03-19T15:44:32.609Z,8.03
2018-03-19T15:46:59.908Z,8.60
2018-03-19T15:49:27.232Z,7.97
2018-03-19T15:51:54.438Z,8.17
2018-03-19T15:54:21.716Z,8.87
2018-03-19T15:56:48.981Z,8.37
2018-03-19T15:59:16.264Z,7.77
2018-03-19T16:01:43.545Z,8.23
2018-03-19T16:04:10.885Z,8.07
2018-03-19T16:06:38.175Z,8.03
2018-03-19T16:09:05.428Z,7.60
2018-03-19T16:11:32.728Z,8.40
2018-03-19T16:13:59.986Z,8.10
2018-03-19T16:16:27.396Z,7.63
2018-03-19T16:18:54.725Z,7.43
2018-03-19T16:21:22.083Z,8.27
2018-03-19T16:23:49.437Z,9.93
2018-03-19T16:26:16.720Z,11.97
2018-03-19T16:28:43.985Z,9.27
2018-03-19T16:31:11.276Z,7.17
2018-03-19T16:33:38.533Z,7.37
2018-03-19T16:36:05.821Z,10.67
2018-03-19T16:38:33.156Z,8.60
2018-03-19T16:41:00.453Z,14.50
2018-03-19T16:43:27.714Z,8.47
2018-03-19T16:45:55.017Z,7.57
2018-03-19T16:48:22.289Z,7.87
2018-03-19T16:50:49.585Z,8.03
2018-03-19T16:53:16.837Z,7.30
2018-03-19T16:55:44.119Z,7.10
2018-03-19T16:58:11.380Z,5.20
2018-03-19T17:00:38.660Z,7.30
2018-03-19T17:03:05.930Z,9.10
2018-03-19T17:05:33.184Z,6.97
2018-03-19T17:08:00.509Z,6.70
2018-03-19T17:10:27.774Z,6.50
2018-03-19T17:12:55.053Z,6.17
2018-03-19T17:15:22.337Z,7.20
2018-03-19T17:17:49.721Z,6.23
2018-03-19T17:20:16.976Z,7.40
2018-03-19T17:22:44.265Z,6.73
2018-03-19T17:25:11.579Z,6.00
2018-03-19T17:27:39.661Z,5.97
2018-03-19T17:30:06.912Z,6.80
2018-03-19T17:32:34.204Z,6.83
2018-03-19T17:35:01.521Z,7.30
2018-03-19T17:37:28.797Z,6.20
2018-03-19T17:39:56.061Z,6.80
2018-03-19T17:42:23.351Z,8.60
2018-03-19T17:44:50.609Z,6.30
2018-03-19T17:47:17.868Z,7.00
2018-03-19T17:49:45.161Z,6.50
2018-03-19T17:52:12.439Z,6.00
2018-03-19T17:54:39.717Z,6.00
2018-03-19T17:57:06.997Z,6.63
2018-03-19T17:59:34.301Z,7.77
2018-03-19T18:02:01.619Z,7.10
2018-03-19T18:04:28.919Z,7.00
2018-03-19T18:06:56.170Z,7.90
2018-03-19T18:09:23.457Z,7.80
2018-03-19T18:11:50.709Z,7.37
2018-03-19T18:14:17.976Z,13.33
2018-03-19T18:16:45.269Z,11.13
2018-03-19T18:19:12.589Z,10.63
2018-03-19T18:21:39.881Z,10.73
2018-03-19T18:24:07.149Z,12.13
2018-03-19T18:26:34.426Z,10.10
2018-03-19T18:29:01.716Z,13.17
2018-03-19T18:31:28.985Z,10.63
2018-03-19T18:33:56.281Z,13.03
2018-03-19T18:36:23.575Z,10.63
2018-03-19T18:38:50.832Z,14.83
2018-03-19T18:41:18.178Z,11.17
2018-03-19T18:43:45.450Z,8.40
2018-03-19T18:46:12.742Z,12.27
2018-03-19T18:48:40.005Z,8.60
2018-03-19T18:51:07.292Z,11.13
2018-03-19T18:53:34.641Z,9.30
2018-03-19T18:56:02.013Z,9.33
2018-03-19T18:58:29.261Z,9.87
2018-03-19T19:00:56.542Z,9.00
2018-03-19T19:03:23.808Z,11.20
2018-03-19T19:05:51.094Z,9.27
2018-03-19T19:08:18.362Z,10.97
2018-03-19T19:10:45.669Z,12.50
2018-03-19T19:13:12.927Z,8.93
2018-03-19T19:15:40.192Z,10.80
2018-03-19T19:18:07.484Z,9.50
2018-03-19T19:20:34.750Z,10.00
2018-03-19T19:23:02.108Z,10.20
2018-03-19T19:25:29.453Z,10.60
2018-03-19T19:27:56.728Z,11.37
2018-03-19T19:30:24.008Z,11.13
2018-03-19T19:32:51.296Z,12.53
2018-03-19T19:35:18.569Z,11.87
2018-03-19T19:37:45.862Z,10.17
2018-03-19T19:40:13.187Z,10.40
2018-03-19T19:42:40.476Z,11.17
2018-03-19T19:45:07.741Z,11.63
2018-03-19T19:47:35.027Z,10.87
2018-03-19T19:50:02.395Z,10.00
2018-03-19T19:52:29.726Z,10.70
2018-03-19T19:54:56.965Z,9.97
2018-03-19T19:57:24.224Z,11.37
2018-03-19T19:59:51.519Z,10.13
2018-03-19T20:02:18.785Z,10.80
2018-03-19T20:04:46.080Z,10.10
2018-03-19T20:07:13.355Z,10.33
2018-03-19T20:09:40.608Z,10.33
2018-03-19T20:12:07.904Z,11.57
2018-03-19T20:14:35.169Z,10.00
2018-03-19T20:17:02.495Z,10.73
2018-03-19T20:19:29.756Z,11.20
2018-03-19T20:21:57.100Z,11.00
2018-03-19T20:24:24.380Z,10.60
2018-03-19T20:26:51.673Z,10.43
2018-03-19T20:29:19.008Z,11.60
2018-03-19T20:31:46.308Z,10.70
2018-03-19T20:34:13.573Z,11.90
2018-03-19T20:36:40.929Z,11.77
2018-03-19T20:39:08.213Z,10.23
2018-03-19T20:41:35.481Z,10.00
2018-03-19T20:44:02.780Z,11.07
2018-03-19T20:46:30.037Z,12.17
2018-03-19T20:48:57.300Z,11.37
2018-03-19T20:51:24.655Z,11.03
2018-03-19T20:53:51.944Z,11.37
2018-03-19T20:56:19.250Z,10.53
2018-03-19T20:58:46.502Z,12.37
2018-03-19T21:01:13.806Z,11.73
2018-03-19T21:03:41.126Z,10.70
2018-03-19T21:06:08.476Z,11.23
2018-03-19T21:08:35.737Z,11.37
2018-03-19T21:11:03.090Z,11.20
2018-03-19T21:13:30.380Z,11.53
2018-03-19T21:15:57.697Z,11.07
2018-03-19T21:18:24.998Z,12.07
2018-03-19T21:20:52.409Z,11.93
2018-03-19T21:23:19.677Z,12.13
2018-03-19T21:25:46.936Z,11.90
2018-03-19T21:28:14.235Z,14.90
2018-03-19T21:30:41.492Z,11.37
2018-03-19T21:33:08.785Z,13.87
2018-03-19T21:35:36.162Z,11.17
2018-03-19T21:38:03.407Z,11.20
2018-03-19T21:40:30.735Z,11.40
2018-03-19T21:42:58.033Z,10.80
2018-03-19T21:45:25.348Z,10.70
2018-03-19T21:47:52.616Z,19.03
2018-03-19T21:50:19.901Z,10.60
2018-03-19T21:52:47.174Z,15.90
2018-03-19T21:55:14.492Z,11.77
2018-03-19T21:57:41.873Z,14.10
2018-03-19T22:00:09.132Z,24.30
2018-03-19T22:02:36.402Z,11.53
2018-03-19T22:05:03.790Z,18.80
2018-03-19T22:07:31.088Z,15.03
2018-03-19T22:09:58.381Z,13.93
2018-03-19T22:12:25.652Z,14.23
2018-03-19T22:14:52.993Z,12.30
2018-03-19T22:17:20.360Z,11.90
2018-03-19T22:19:47.625Z,11.80
2018-03-19T22:22:14.889Z,11.63
2018-03-19T22:24:42.198Z,11.70
2018-03-19T22:27:09.479Z,11.80
2018-03-19T22:29:36.745Z,11.53
2018-03-19T22:32:04.041Z,12.43
2018-03-19T22:34:31.305Z,12.17
2018-03-19T22:36:58.608Z,10.97
2018-03-19T22:39:25.928Z,11.90
2018-03-19T22:41:53.168Z,11.87
2018-03-19T22:44:20.464Z,11.53
2018-03-19T22:46:47.729Z,11.50
2018-03-19T22:49:14.992Z,13.27
2018-03-19T22:51:42.277Z,11.20
2018-03-19T22:54:09.551Z,12.70
2018-03-19T22:56:36.837Z,13.03
2018-03-19T22:59:04.133Z,12.90
2018-03-19T23:01:31.438Z,12.10
2018-03-19T23:03:58.702Z,11.93
2018-03-19T23:06:26.062Z,12.33
2018-03-19T23:08:53.305Z,12.20
2018-03-19T23:11:20.657Z,13.43
2018-03-19T23:13:47.966Z,14.10
2018-03-19T23:16:15.234Z,13.50
2018-03-19T23:18:42.497Z,15.40
2018-03-19T23:21:09.867Z,14.57
2018-03-19T23:23:37.124Z,11.87
2018-03-19T23:26:04.579Z,13.50
2018-03-19T23:28:31.844Z,11.80
2018-03-19T23:30:59.108Z,12.30
2018-03-19T23:33:26.443Z,13.27
2018-03-19T23:35:53.700Z,12.80
2018-03-19T23:38:21.007Z,13.37
2018-03-19T23:40:48.355Z,11.73
2018-03-19T23:43:15.658Z,10.63
2018-03-19T23:45:42.932Z,11.97
2018-03-19T23:48:10.212Z,11.97
2018-03-19T23:50:37.486Z,12.50
2018-03-19T23:53:04.772Z,11.57
2018-03-19T23:55:32.050Z,11.50
2018-03-19T23:57:59.310Z,11.80
